Time;durP1;ratioP1;P1;durP2;ratioP2;P2;SDS_P1;SDS_P2;PMS_P1;PMS_P2;Temp;Humidity;BMP_temperature;BMP_pressure;BME280_temperature;BME280_humidity;BME280_pressure;Samples;Min_cycle;Max_cycle;Signal;HPM_P1;HPM_P2
2021/01/02 00:02:43;;;;;;;51.00;28.43;;;3.20;99.90;;;;;;5010990;28;20473;-76
2021/01/02 00:05:12;;;;;;;59.50;31.33;;;3.20;99.90;;;;;;5001920;28;20454;-76
2021/01/02 00:08:02;;;;;;;50.73;27.47;;;3.20;99.90;;;;;;4997446;28;20446;-77
2021/01/02 00:10:35;;;;;;;45.00;28.27;;;3.10;99.90;;;;;;5007613;28;20483;-76
2021/01/02 00:13:22;;;;;;;50.17;29.57;;;3.10;99.90;;;;;;5014039;28;20469;-76
2021/01/02 00:16:20;;;;;;;47.63;29.87;;;3.20;99.90;;;;;;5010826;28;20521;-77
2021/01/02 00:19:00;;;;;;;51.67;30.50;;;3.20;99.90;;;;;;5003256;28;21820;-78
2021/01/02 00:21:26;;;;;;;54.67;29.57;;;3.20;99.90;;;;;;5011039;28;20962;-77
2021/01/02 00:24:04;;;;;;;49.13;29.20;;;3.20;99.90;;;;;;5009957;28;21073;-78
2021/01/02 00:26:44;;;;;;;46.37;28.10;;;3.20;99.90;;;;;;5002276;28;20476;-77
2021/01/02 00:29:24;;;;;;;54.43;31.13;;;3.20;99.90;;;;;;4997381;28;20497;-75
2021/01/02 00:31:55;;;;;;;54.07;29.20;;;3.20;99.90;;;;;;4997258;28;20564;-76
2021/01/02 00:34:40;;;;;;;58.10;30.50;;;3.20;99.90;;;;;;5007727;28;20453;-78
2021/01/02 00:37:20;;;;;;;49.97;29.30;;;3.10;99.90;;;;;;5006781;28;20447;-76
2021/01/02 00:40:12;;;;;;;49.73;29.00;;;3.10;99.90;;;;;;4997627;28;20481;-77
2021/01/02 00:42:40;;;;;;;50.53;28.13;;;3.10;1.00;;;;;;5006485;28;20957;-77
2021/01/02 00:45:09;;;;;;;43.13;28.40;;;3.10;1.00;;;;;;5008275;28;20467;-77
2021/01/02 00:47:38;;;;;;;45.73;29.63;;;3.10;1.00;;;;;;5010174;28;20460;-77
2021/01/02 00:50:06;;;;;;;45.83;29.03;;;3.10;99.90;;;;;;5007640;28;20844;-77
2021/01/02 00:53:01;;;;;;;44.70;28.50;;;3.20;1.00;;;;;;5007016;28;20454;-77
2021/01/02 00:56:03;;;;;;;48.20;28.47;;;3.10;99.90;;;;;;5003600;28;20842;-77
2021/01/02 00:58:54;;;;;;;46.20;28.20;;;3.10;99.90;;;;;;4995570;28;20725;-76
2021/01/02 01:01:35;;;;;;;51.53;28.03;;;3.10;99.90;;;;;;5009879;28;21034;-77
2021/01/02 01:04:26;;;;;;;50.37;28.00;;;3.00;99.90;;;;;;5006701;28;20513;-77
2021/01/02 01:06:55;;;;;;;44.87;27.67;;;3.10;99.90;;;;;;5008813;28;20458;-77
2021/01/02 01:09:24;;;;;;;44.20;24.97;;;3.10;99.90;;;;;;5009522;28;20485;-77
2021/01/02 01:11:55;;;;;;;43.20;26.17;;;3.00;1.00;;;;;;5005234;28;20453;-77
2021/01/02 01:14:22;;;;;;;50.40;29.80;;;3.00;99.90;;;;;;5006966;28;20880;-78
2021/01/02 01:16:55;;;;;;;52.17;31.30;;;3.10;99.90;;;;;;5004328;28;20835;-77
2021/01/02 01:19:26;;;;;;;50.97;29.57;;;3.10;99.90;;;;;;5010856;28;20473;-77
2021/01/02 01:22:01;;;;;;;44.77;29.10;;;3.00;99.90;;;;;;5011654;28;20556;-76
2021/01/02 01:24:46;;;;;;;49.80;27.87;;;3.00;99.90;;;;;;5014819;28;20465;-76
2021/01/02 01:27:28;;;;;;;46.17;26.87;;;3.00;99.90;;;;;;5011615;28;20527;-76
2021/01/02 01:30:00;;;;;;;47.87;27.50;;;3.00;99.90;;;;;;5016323;28;20572;-76
2021/01/02 01:32:27;;;;;;;44.90;28.17;;;3.00;1.00;;;;;;5014316;28;20986;-75
2021/01/02 01:34:57;;;;;;;46.33;26.07;;;3.00;99.90;;;;;;5009398;28;20734;-77
2021/01/02 01:37:30;;;;;;;39.33;26.10;;;3.00;99.90;;;;;;5015600;28;20457;-77
2021/01/02 01:39:57;;;;;;;49.50;27.50;;;3.00;99.90;;;;;;5023522;28;20504;-77
2021/01/02 01:43:04;;;;;;;45.97;27.80;;;3.00;99.90;;;;;;5010126;28;20987;-77
2021/01/02 01:45:37;;;;;;;46.97;27.80;;;3.00;1.00;;;;;;5005276;28;20844;-77
2021/01/02 01:48:13;;;;;;;43.17;25.77;;;3.00;1.00;;;;;;5026635;28;20611;-77
2021/01/02 01:50:38;;;;;;;45.17;27.83;;;2.90;1.00;;;;;;5011668;28;20451;-77
2021/01/02 01:53:30;;;;;;;50.60;26.73;;;3.00;1.00;;;;;;5013405;28;20520;-77
2021/01/02 01:55:58;;;;;;;43.93;25.13;;;3.00;1.00;;;;;;5006016;28;20200;-77
2021/01/02 01:58:49;;;;;;;44.30;28.00;;;3.00;1.00;;;;;;5015459;28;21286;-77
2021/01/02 02:01:23;;;;;;;42.47;26.30;;;2.90;1.00;;;;;;5005679;28;20456;-76
2021/01/02 02:04:24;;;;;;;42.93;26.83;;;2.90;1.00;;;;;;5000426;28;20467;-76
2021/01/02 02:06:59;;;;;;;47.13;28.30;;;2.90;1.00;;;;;;5001281;28;20469;-76
2021/01/02 02:09:41;;;;;;;41.70;26.60;;;2.90;1.00;;;;;;5005911;28;20863;-76
2021/01/02 02:12:20;;;;;;;42.17;26.27;;;2.90;1.00;;;;;;5003431;28;21026;-76
2021/01/02 02:15:00;;;;;;;40.50;25.47;;;2.90;1.00;;;;;;5004796;28;20465;-77
2021/01/02 02:17:34;;;;;;;45.77;26.50;;;3.00;1.00;;;;;;5003970;28;20534;-77
2021/01/02 02:20:09;;;;;;;48.40;26.70;;;2.90;1.00;;;;;;5009965;28;20461;-77
2021/01/02 02:22:41;;;;;;;38.27;24.33;;;2.90;1.00;;;;;;5009218;28;20492;-76
2021/01/02 02:25:15;;;;;;;43.43;26.80;;;2.90;1.00;;;;;;5011566;28;20553;-77
2021/01/02 02:27:43;;;;;;;42.50;26.07;;;2.90;1.00;;;;;;5009192;28;21060;-77
2021/01/02 02:30:32;;;;;;;37.13;25.00;;;2.90;1.00;;;;;;5012543;28;20584;-77
2021/01/02 02:33:00;;;;;;;36.23;23.00;;;3.00;1.00;;;;;;5011276;28;20473;-77
2021/01/02 02:35:26;;;;;;;38.47;24.20;;;2.90;1.00;;;;;;5015825;28;20451;-76
2021/01/02 02:37:53;;;;;;;36.77;24.30;;;2.90;1.00;;;;;;5014721;28;20586;-77
2021/01/02 02:40:20;;;;;;;44.40;24.80;;;2.90;1.00;;;;;;5005939;28;20203;-76
2021/01/02 02:42:47;;;;;;;36.47;24.80;;;2.90;1.00;;;;;;5010844;28;20458;-77
2021/01/02 02:45:16;;;;;;;46.57;23.33;;;2.90;1.00;;;;;;5026189;28;20924;-76
2021/01/02 02:47:45;;;;;;;37.20;23.10;;;3.00;1.00;;;;;;5015050;28;21018;-76
2021/01/02 02:50:17;;;;;;;38.20;24.83;;;3.00;1.00;;;;;;5003567;28;20490;-77
2021/01/02 02:52:46;;;;;;;38.20;23.97;;;2.90;1.00;;;;;;5000678;28;20442;-77
2021/01/02 02:55:12;;;;;;;37.73;22.00;;;2.90;1.00;;;;;;5008139;28;21062;-77
2021/01/02 02:57:47;;;;;;;43.50;23.50;;;2.90;1.00;;;;;;5007975;28;20488;-77
2021/01/02 03:00:13;;;;;;;32.80;21.63;;;2.90;1.00;;;;;;5016948;28;20442;-77
2021/01/02 03:02:39;;;;;;;35.83;22.23;;;3.00;1.00;;;;;;5012477;28;24969;-77
2021/01/02 03:05:10;;;;;;;33.60;21.67;;;2.90;1.00;;;;;;5001470;28;20462;-77
2021/01/02 03:07:41;;;;;;;35.33;21.63;;;2.90;1.00;;;;;;5012791;28;20489;-76
2021/01/02 03:10:08;;;;;;;34.33;21.83;;;3.00;1.00;;;;;;5011261;28;20498;-76
2021/01/02 03:12:42;;;;;;;31.00;19.60;;;2.90;1.00;;;;;;5011883;28;20537;-76
2021/01/02 03:15:10;;;;;;;34.97;20.33;;;3.00;1.00;;;;;;5009976;28;20484;-76
2021/01/02 03:17:35;;;;;;;34.27;21.87;;;3.00;99.90;;;;;;5008737;28;20470;-76
2021/01/02 03:20:01;;;;;;;30.80;20.50;;;2.90;99.90;;;;;;5011966;28;20457;-76
2021/01/02 03:22:27;;;;;;;30.27;19.20;;;2.90;1.00;;;;;;5014609;28;20198;-76
2021/01/02 03:24:52;;;;;;;35.33;21.40;;;2.90;1.00;;;;;;5010096;28;20207;-76
2021/01/02 03:27:18;;;;;;;33.67;20.70;;;2.90;1.00;;;;;;5003495;28;20198;-76
2021/01/02 03:29:43;;;;;;;35.57;21.70;;;2.90;1.00;;;;;;5004105;28;20271;-76
2021/01/02 03:32:09;;;;;;;34.03;21.50;;;2.90;99.90;;;;;;5005912;28;20570;-76
2021/01/02 03:34:38;;;;;;;33.93;21.57;;;2.80;99.90;;;;;;5006891;28;20322;-75
2021/01/02 03:37:04;;;;;;;35.73;21.00;;;2.70;99.90;;;;;;5010765;28;20179;-76
2021/01/02 03:39:29;;;;;;;35.47;20.73;;;2.80;99.90;;;;;;5011404;28;20874;-77
2021/01/02 03:41:55;;;;;;;30.53;19.67;;;2.80;99.90;;;;;;5009823;28;20855;-76
2021/01/02 03:44:20;;;;;;;36.73;21.43;;;2.70;99.90;;;;;;5013497;28;20618;-77
2021/01/02 03:46:46;;;;;;;32.87;21.30;;;2.80;99.90;;;;;;5010557;28;20221;-77
2021/01/02 03:49:12;;;;;;;31.10;21.60;;;2.80;99.90;;;;;;5004178;28;20209;-76
2021/01/02 03:51:37;;;;;;;35.80;21.43;;;2.80;99.90;;;;;;5009718;28;20233;-76
2021/01/02 03:54:03;;;;;;;31.97;20.37;;;2.80;1.00;;;;;;5011108;28;24638;-76
2021/01/02 03:56:29;;;;;;;33.53;22.77;;;2.80;99.90;;;;;;5007395;28;20195;-76
2021/01/02 03:58:54;;;;;;;34.23;20.80;;;2.90;1.00;;;;;;5017974;28;20652;-77
2021/01/02 04:01:20;;;;;;;33.93;22.20;;;2.80;99.90;;;;;;5013409;28;20287;-76
2021/01/02 04:03:46;;;;;;;33.77;22.07;;;2.80;99.90;;;;;;5012895;28;20199;-76
2021/01/02 04:06:11;;;;;;;35.20;20.97;;;2.80;99.90;;;;;;5000363;28;20206;-76
2021/01/02 04:08:37;;;;;;;33.40;21.80;;;2.80;99.90;;;;;;4999684;28;20506;-76
2021/01/02 04:11:03;;;;;;;34.43;21.30;;;2.90;99.90;;;;;;4998713;28;20215;-76
2021/01/02 04:13:28;;;;;;;37.23;21.80;;;2.90;99.90;;;;;;5005146;28;20619;-77
2021/01/02 04:15:55;;;;;;;38.30;22.73;;;2.80;99.90;;;;;;5013995;28;20191;-76
2021/01/02 04:18:21;;;;;;;34.70;21.83;;;2.80;99.90;;;;;;5009301;28;20837;-76
2021/01/02 04:20:47;;;;;;;34.97;21.20;;;2.80;99.90;;;;;;5013679;28;20191;-76
2021/01/02 04:23:13;;;;;;;32.63;22.53;;;2.80;99.90;;;;;;5010150;28;20550;-76
2021/01/02 04:25:40;;;;;;;31.40;20.70;;;2.80;99.90;;;;;;4997468;28;20905;-77
2021/01/02 04:28:11;;;;;;;36.27;21.20;;;2.80;99.90;;;;;;5003795;28;20348;-77
2021/01/02 04:30:38;;;;;;;32.83;20.90;;;2.80;99.90;;;;;;5006589;28;20455;-76
2021/01/02 04:33:04;;;;;;;36.40;21.33;;;2.80;99.90;;;;;;5012717;28;20446;-76
2021/01/02 04:35:30;;;;;;;33.97;21.57;;;2.80;99.90;;;;;;5009188;28;20500;-76
2021/01/02 04:37:55;;;;;;;41.37;22.73;;;2.80;99.90;;;;;;5005067;28;20879;-76
2021/01/02 04:40:21;;;;;;;34.70;21.33;;;2.70;99.90;;;;;;4999747;28;20567;-77
2021/01/02 04:42:48;;;;;;;37.40;22.47;;;2.80;99.90;;;;;;5035737;28;20192;-76
2021/01/02 04:45:14;;;;;;;40.07;22.50;;;2.80;99.90;;;;;;5013817;28;20188;-76
2021/01/02 04:47:44;;;;;;;36.90;23.03;;;2.70;99.90;;;;;;5010078;28;20544;-76
2021/01/02 04:50:10;;;;;;;35.10;22.53;;;2.70;99.90;;;;;;5009771;28;20485;-77
2021/01/02 04:52:36;;;;;;;36.83;20.50;;;2.70;99.90;;;;;;5000722;28;20651;-76
2021/01/02 04:55:04;;;;;;;31.87;20.50;;;2.60;99.90;;;;;;5009181;28;20679;-76
2021/01/02 04:57:35;;;;;;;37.80;22.33;;;2.70;99.90;;;;;;5011153;28;25289;-75
2021/01/02 05:00:03;;;;;;;35.73;22.97;;;2.70;99.90;;;;;;5016338;28;20480;-77
2021/01/02 05:02:30;;;;;;;37.67;21.17;;;2.60;99.90;;;;;;5006897;28;20977;-76
2021/01/02 05:04:56;;;;;;;34.03;21.40;;;2.60;99.90;;;;;;5002390;28;21147;-76
2021/01/02 05:07:23;;;;;;;35.80;21.50;;;2.50;99.90;;;;;;5001706;28;20469;-79
2021/01/02 05:09:49;;;;;;;34.00;19.77;;;2.60;99.90;;;;;;5002889;28;20983;-77
2021/01/02 05:12:29;;;;;;;34.60;20.73;;;2.60;99.90;;;;;;5008933;28;20455;-76
2021/01/02 05:15:10;;;;;;;31.73;22.17;;;2.60;99.90;;;;;;5012452;28;20206;-78
2021/01/02 05:17:38;;;;;;;35.20;22.37;;;2.60;99.90;;;;;;5014956;28;21050;-77
2021/01/02 05:20:12;;;;;;;39.13;23.93;;;2.60;99.90;;;;;;5007672;28;20599;-77
2021/01/02 05:22:39;;;;;;;31.90;20.90;;;2.60;99.90;;;;;;5005331;28;20452;-77
2021/01/02 05:25:05;;;;;;;43.63;25.00;;;2.60;99.90;;;;;;5013247;28;21020;-77
2021/01/02 05:27:35;;;;;;;34.57;21.57;;;2.60;99.90;;;;;;5010539;28;20577;-77
2021/01/02 05:30:20;;;;;;;35.27;22.20;;;2.60;99.90;;;;;;5006731;28;20485;-76
2021/01/02 05:33:01;;;;;;;33.60;20.20;;;2.70;99.90;;;;;;5015635;28;20479;-77
2021/01/02 05:35:32;;;;;;;33.50;20.80;;;2.70;99.90;;;;;;5004303;28;20450;-77
2021/01/02 05:38:17;;;;;;;30.50;19.50;;;2.70;99.90;;;;;;5009388;28;20471;-77
2021/01/02 05:40:47;;;;;;;34.97;21.10;;;2.60;99.90;;;;;;5024809;28;20488;-77
2021/01/02 05:43:14;;;;;;;31.83;20.23;;;2.60;99.90;;;;;;5004702;28;21573;-76
2021/01/02 05:45:40;;;;;;;35.20;22.30;;;2.60;99.90;;;;;;5009115;28;20872;-75
2021/01/02 05:48:18;;;;;;;36.37;20.80;;;2.60;99.90;;;;;;5014448;28;20446;-76
2021/01/02 05:50:58;;;;;;;34.03;21.20;;;2.60;99.90;;;;;;5009046;28;20805;-75
2021/01/02 05:53:27;;;;;;;34.37;20.70;;;2.50;99.90;;;;;;5009457;28;20449;-75
2021/01/02 05:56:13;;;;;;;32.00;18.93;;;2.50;99.90;;;;;;5000975;28;20473;-76
2021/01/02 05:58:43;;;;;;;29.60;19.23;;;2.50;99.90;;;;;;5003984;28;20833;-77
2021/01/02 06:01:20;;;;;;;34.17;19.73;;;2.50;99.90;;;;;;5003832;28;20461;-77
2021/01/02 06:03:50;;;;;;;29.37;18.57;;;2.50;99.90;;;;;;5000426;28;21919;-76
2021/01/02 06:06:17;;;;;;;29.37;19.27;;;2.40;99.90;;;;;;5001394;28;20483;-76
2021/01/02 06:08:46;;;;;;;30.30;19.00;;;2.40;99.90;;;;;;5008335;28;20503;-76
2021/01/02 06:11:17;;;;;;;35.10;19.60;;;2.40;99.90;;;;;;5011079;28;20536;-76
2021/01/02 06:13:45;;;;;;;29.47;18.70;;;2.40;99.90;;;;;;5012074;28;21863;-76
2021/01/02 06:16:11;;;;;;;28.47;18.97;;;2.40;99.90;;;;;;5012145;28;20810;-76
2021/01/02 06:18:44;;;;;;;32.00;18.17;;;2.40;99.90;;;;;;5008013;28;20574;-77
2021/01/02 06:21:17;;;;;;;32.63;20.63;;;2.40;99.90;;;;;;5003112;28;20449;-76
2021/01/02 06:23:46;;;;;;;31.20;18.40;;;2.50;99.90;;;;;;5002091;28;20738;-76
2021/01/02 06:26:13;;;;;;;37.50;19.60;;;2.50;99.90;;;;;;5003918;28;20470;-76
2021/01/02 06:28:41;;;;;;;36.47;19.17;;;2.50;99.90;;;;;;5006266;28;20485;-76
2021/01/02 06:31:12;;;;;;;32.07;19.13;;;2.50;99.90;;;;;;5009163;28;20897;-76
2021/01/02 06:33:50;;;;;;;33.47;19.20;;;2.50;98.20;;;;;;5012571;28;21204;-77
2021/01/02 06:36:33;;;;;;;31.00;18.97;;;2.60;97.10;;;;;;5011023;28;20457;-76
2021/01/02 06:39:19;;;;;;;29.20;19.03;;;2.50;88.60;;;;;;5009196;28;20457;-76
2021/01/02 06:41:45;;;;;;;31.53;18.80;;;2.50;92.00;;;;;;5011396;28;20469;-76
2021/01/02 06:44:31;;;;;;;33.23;18.30;;;2.50;97.60;;;;;;5012602;28;20455;-76
2021/01/02 06:47:32;;;;;;;32.10;18.10;;;2.50;85.80;;;;;;5008939;28;20541;-77
2021/01/02 06:50:14;;;;;;;31.90;19.97;;;2.50;73.00;;;;;;5014646;28;21200;-76
2021/01/02 06:52:40;;;;;;;30.53;17.17;;;2.50;60.40;;;;;;5040590;28;20504;-76
2021/01/02 06:55:23;;;;;;;35.23;18.27;;;2.50;62.30;;;;;;5013928;28;20671;-76
2021/01/02 06:57:49;;;;;;;26.23;17.20;;;2.40;38.90;;;;;;5008634;28;20204;-76
2021/01/02 07:00:23;;;;;;;30.90;17.27;;;2.50;38.20;;;;;;5017715;28;22780;-77
2021/01/02 07:02:49;;;;;;;30.63;18.23;;;2.50;52.00;;;;;;5016396;28;20458;-77
2021/01/02 07:05:41;;;;;;;27.90;18.50;;;2.50;43.40;;;;;;5015463;28;20806;-76
2021/01/02 07:08:40;;;;;;;30.23;18.53;;;2.50;34.40;;;;;;5029553;28;21323;-76
2021/01/02 07:11:46;;;;;;;29.07;18.27;;;2.50;45.10;;;;;;5002629;28;20489;-76
2021/01/02 07:14:12;;;;;;;34.60;17.80;;;2.50;40.00;;;;;;5015146;28;20445;-77
2021/01/02 07:16:47;;;;;;;31.30;17.57;;;2.50;51.50;;;;;;5009896;28;20604;-77
2021/01/02 07:19:30;;;;;;;29.17;18.53;;;2.50;45.60;;;;;;5005595;28;20465;-76
2021/01/02 07:22:20;;;;;;;30.17;18.17;;;2.50;37.70;;;;;;5014188;28;20962;-76
2021/01/02 07:24:48;;;;;;;27.70;17.40;;;2.50;38.30;;;;;;5016251;28;21166;-76
2021/01/02 07:27:16;;;;;;;26.10;16.80;;;2.40;26.70;;;;;;5013982;28;20901;-76
2021/01/02 07:29:47;;;;;;;28.80;17.83;;;2.40;29.80;;;;;;5014805;28;20598;-77
2021/01/02 07:32:21;;;;;;;30.60;18.00;;;2.50;38.50;;;;;;5014541;28;20457;-76
2021/01/02 07:34:58;;;;;;;31.70;19.17;;;2.50;34.20;;;;;;5032827;28;20452;-76
2021/01/02 07:37:28;;;;;;;40.00;19.23;;;2.50;20.50;;;;;;5030200;28;20956;-75
2021/01/02 07:39:57;;;;;;;37.87;19.33;;;2.50;13.60;;;;;;5033821;28;20454;-76
2021/01/02 07:42:25;;;;;;;35.13;18.07;;;2.40;8.60;;;;;;5032663;28;20469;-76
2021/01/02 07:44:58;;;;;;;30.00;17.80;;;2.50;15.70;;;;;;5020350;28;20453;-76
2021/01/02 07:47:24;;;;;;;32.47;18.33;;;2.40;16.60;;;;;;5020680;28;20469;-75
2021/01/02 07:49:57;;;;;;;33.67;19.10;;;2.50;28.10;;;;;;5016973;28;20519;-75
2021/01/02 07:52:23;;;;;;;34.43;19.00;;;2.60;29.70;;;;;;5012831;28;20452;-76
2021/01/02 07:54:48;;;;;;;34.90;21.07;;;2.60;34.60;;;;;;5012252;28;20454;-77
2021/01/02 07:57:25;;;;;;;31.20;18.27;;;2.50;27.40;;;;;;5010060;28;20243;-76
2021/01/02 07:59:54;;;;;;;32.23;19.70;;;2.60;28.50;;;;;;5014532;28;20237;-76
2021/01/02 08:02:24;;;;;;;41.00;19.87;;;2.60;30.10;;;;;;5013595;28;20449;-76
2021/01/02 08:04:51;;;;;;;33.83;21.10;;;2.70;31.60;;;;;;5014483;28;20450;-76
2021/01/02 08:07:17;;;;;;;34.93;19.20;;;2.60;28.10;;;;;;5012055;28;20870;-76
2021/01/02 08:09:44;;;;;;;31.20;18.70;;;2.60;22.30;;;;;;5013313;28;20524;-76
2021/01/02 08:12:11;;;;;;;29.03;18.20;;;2.60;23.10;;;;;;5010721;28;20203;-76
2021/01/02 08:14:43;;;;;;;30.00;18.63;;;2.70;27.20;;;;;;5012986;28;25018;-76
2021/01/02 08:17:11;;;;;;;33.20;19.77;;;2.60;13.40;;;;;;5014863;28;20476;-76
2021/01/02 08:19:46;;;;;;;31.67;18.70;;;2.60;11.30;;;;;;5015056;28;20474;-75
2021/01/02 08:22:12;;;;;;;32.80;20.30;;;2.60;8.80;;;;;;5008837;28;20481;-75
2021/01/02 08:24:38;;;;;;;40.83;20.57;;;2.70;18.70;;;;;;5015784;28;20460;-76
2021/01/02 08:27:04;;;;;;;38.33;21.50;;;2.70;12.10;;;;;;5010245;28;20997;-76
2021/01/02 08:29:32;;;;;;;30.90;19.90;;;2.60;8.50;;;;;;5009653;28;21061;-75
2021/01/02 08:32:01;;;;;;;36.10;20.30;;;2.70;17.60;;;;;;5004616;28;20454;-76
2021/01/02 08:34:31;;;;;;;36.13;21.00;;;2.70;19.10;;;;;;5009165;28;20542;-76
2021/01/02 08:36:59;;;;;;;34.53;20.00;;;2.70;28.40;;;;;;5043424;28;20444;-76
2021/01/02 08:39:25;;;;;;;33.47;22.97;;;2.70;15.00;;;;;;5012277;28;20466;-75
2021/01/02 08:41:56;;;;;;;34.93;21.07;;;2.70;22.00;;;;;;5009819;28;20465;-76
2021/01/02 08:44:43;;;;;;;42.80;23.40;;;2.70;22.00;;;;;;5007404;28;20469;-76
2021/01/02 08:47:09;;;;;;;31.47;18.90;;;2.70;14.00;;;;;;5015035;28;20472;-75
2021/01/02 08:49:43;;;;;;;40.23;21.03;;;2.70;15.60;;;;;;5005123;28;20601;-76
2021/01/02 08:52:20;;;;;;;36.53;21.87;;;2.70;8.70;;;;;;5005835;28;20273;-76
2021/01/02 08:54:48;;;;;;;30.97;18.80;;;2.70;14.00;;;;;;5011282;28;20465;-75
2021/01/02 08:57:42;;;;;;;36.47;20.80;;;2.70;10.00;;;;;;5022964;28;20559;-76
2021/01/02 09:00:19;;;;;;;37.43;20.13;;;2.80;12.10;;;;;;5009382;28;20469;-76
2021/01/02 09:02:48;;;;;;;34.20;19.43;;;2.80;12.50;;;;;;5010120;28;20450;-76
2021/01/02 09:05:24;;;;;;;35.77;20.70;;;2.80;6.50;;;;;;5009634;28;21279;-75
2021/01/02 09:08:11;;;;;;;38.03;21.07;;;2.80;12.40;;;;;;5007240;28;21017;-76
2021/01/02 09:10:44;;;;;;;38.97;20.03;;;2.90;18.60;;;;;;4996249;28;20500;-76
2021/01/02 09:13:24;;;;;;;35.70;22.00;;;2.80;20.90;;;;;;5008247;28;20454;-76
2021/01/02 09:16:01;;;;;;;35.10;20.33;;;2.90;17.50;;;;;;5014019;28;20495;-76
2021/01/02 09:18:32;;;;;;;31.73;20.30;;;3.00;20.00;;;;;;5012157;28;20481;-75
2021/01/02 09:21:19;;;;;;;42.87;22.67;;;2.90;14.00;;;;;;5008711;28;20486;-77
2021/01/02 09:23:46;;;;;;;38.40;21.50;;;2.90;14.10;;;;;;5005647;28;20503;-76
2021/01/02 09:26:21;;;;;;;36.87;22.47;;;2.90;10.80;;;;;;5000858;28;21087;-76
2021/01/02 09:28:48;;;;;;;34.70;21.33;;;3.00;14.60;;;;;;5005670;28;21340;-74
2021/01/02 09:31:14;;;;;;;39.13;20.90;;;2.90;9.00;;;;;;5006034;28;20481;-76
2021/01/02 09:33:40;;;;;;;33.77;20.93;;;3.00;14.20;;;;;;5004344;28;22097;-76
2021/01/02 09:36:06;;;;;;;38.73;21.30;;;3.00;24.50;;;;;;5005161;28;20187;-76
2021/01/02 09:38:32;;;;;;;40.77;21.07;;;3.00;21.90;;;;;;5003844;28;20457;-77
2021/01/02 09:40:58;;;;;;;37.43;22.20;;;2.90;23.20;;;;;;5008224;28;21038;-77
2021/01/02 09:43:23;;;;;;;36.60;22.43;;;3.00;17.60;;;;;;5012558;28;20493;-76
2021/01/02 09:45:49;;;;;;;37.40;20.63;;;3.00;9.80;;;;;;5019786;28;20460;-77
2021/01/02 09:48:17;;;;;;;38.03;21.47;;;3.00;13.00;;;;;;5010851;28;20651;-76
2021/01/02 09:50:42;;;;;;;38.73;23.43;;;3.00;5.00;;;;;;5013675;28;22440;-76
2021/01/02 09:53:09;;;;;;;42.33;22.90;;;3.00;1.00;;;;;;5016155;28;20451;-77
2021/01/02 09:55:35;;;;;;;38.10;22.37;;;2.90;1.00;;;;;;5019454;28;20210;-76
2021/01/02 09:58:01;;;;;;;37.43;22.40;;;3.00;1.00;;;;;;5016913;28;21009;-76
2021/01/02 10:00:29;;;;;;;39.07;21.27;;;3.10;10.30;;;;;;5015718;28;20481;-77
2021/01/02 10:02:55;;;;;;;33.57;19.40;;;3.00;1.00;;;;;;5015008;28;20184;-76
2021/01/02 10:05:22;;;;;;;44.10;22.70;;;3.00;10.60;;;;;;5012832;28;20470;-76
2021/01/02 10:07:48;;;;;;;38.90;21.93;;;3.00;8.40;;;;;;5006358;28;20515;-77
2021/01/02 10:10:15;;;;;;;36.37;21.80;;;3.00;1.00;;;;;;5009654;28;20482;-77
2021/01/02 10:12:43;;;;;;;39.23;22.60;;;3.10;10.00;;;;;;5008769;28;20687;-79
2021/01/02 10:15:09;;;;;;;42.23;21.17;;;3.10;3.90;;;;;;5007432;28;20587;-75
2021/01/02 10:17:35;;;;;;;37.03;21.27;;;3.20;8.60;;;;;;5015257;28;20465;-75
2021/01/02 10:20:01;;;;;;;42.07;21.63;;;3.20;3.90;;;;;;5009118;28;20462;-76
2021/01/02 10:22:27;;;;;;;37.60;22.57;;;3.10;1.00;;;;;;5005268;28;20576;-75
2021/01/02 10:24:53;;;;;;;39.97;21.70;;;3.20;1.00;;;;;;5010020;28;20191;-76
2021/01/02 10:27:20;;;;;;;38.03;20.70;;;3.20;1.00;;;;;;5009557;28;21118;-76
2021/01/02 10:29:48;;;;;;;38.20;21.97;;;3.20;1.00;;;;;;5009617;28;22059;-76
2021/01/02 10:32:16;;;;;;;37.23;22.17;;;3.20;1.00;;;;;;5013749;28;21417;-76
2021/01/02 10:34:43;;;;;;;35.03;21.27;;;3.20;1.00;;;;;;5003332;28;20463;-76
2021/01/02 10:37:09;;;;;;;38.03;21.77;;;3.30;1.00;;;;;;5006575;28;20865;-76
2021/01/02 10:39:38;;;;;;;37.03;21.03;;;3.20;1.00;;;;;;5004873;28;20442;-76
2021/01/02 10:42:04;;;;;;;32.10;21.70;;;3.20;1.00;;;;;;5014795;28;20470;-77
2021/01/02 10:44:30;;;;;;;40.63;21.17;;;3.30;1.00;;;;;;5014912;28;20966;-76
2021/01/02 10:46:56;;;;;;;33.47;20.63;;;3.30;1.00;;;;;;5012240;28;22114;-76
2021/01/02 10:49:25;;;;;;;40.10;20.87;;;3.30;1.00;;;;;;5012454;28;20219;-76
2021/01/02 10:51:51;;;;;;;31.60;19.93;;;3.40;1.00;;;;;;5013666;28;20176;-76
2021/01/02 10:54:19;;;;;;;29.20;18.17;;;3.40;1.00;;;;;;5013387;28;20998;-77
2021/01/02 10:56:45;;;;;;;38.20;20.70;;;3.50;1.00;;;;;;5010960;28;20478;-76
2021/01/02 10:59:11;;;;;;;31.67;19.23;;;3.50;1.00;;;;;;5016050;28;20541;-76
2021/01/02 11:01:42;;;;;;;27.67;18.50;;;3.50;1.00;;;;;;5010001;28;20482;-77
2021/01/02 11:04:08;;;;;;;33.00;18.00;;;3.60;1.00;;;;;;5015551;28;20538;-77
2021/01/02 11:06:35;;;;;;;32.23;18.30;;;3.60;1.00;;;;;;5010861;28;20481;-76
2021/01/02 11:09:01;;;;;;;31.97;19.17;;;3.60;1.00;;;;;;5011825;28;20541;-76
2021/01/02 11:11:26;;;;;;;36.40;19.73;;;3.60;1.00;;;;;;5005178;28;20570;-77
2021/01/02 11:13:52;;;;;;;34.37;20.27;;;3.60;1.00;;;;;;5004712;28;21580;-76
2021/01/02 11:16:17;;;;;;;29.67;19.03;;;3.70;1.00;;;;;;5026088;28;20187;-76
2021/01/02 11:18:43;;;;;;;34.57;20.70;;;3.70;1.00;;;;;;5010687;28;20581;-76
2021/01/02 11:21:10;;;;;;;28.23;18.60;;;3.70;1.00;;;;;;5010962;28;20187;-77
2021/01/02 11:23:35;;;;;;;33.70;18.37;;;3.80;1.00;;;;;;5008825;28;21171;-75
2021/01/02 11:26:02;;;;;;;32.50;18.53;;;3.70;1.00;;;;;;5015876;28;20454;-75
2021/01/02 11:28:27;;;;;;;29.60;17.90;;;3.80;1.00;;;;;;5011639;28;21631;-75
2021/01/02 11:30:53;;;;;;;30.57;18.43;;;3.80;1.00;;;;;;5020266;28;20461;-76
2021/01/02 11:33:19;;;;;;;27.13;15.93;;;3.80;1.00;;;;;;5019306;28;20194;-76
2021/01/02 11:35:44;;;;;;;30.73;18.10;;;3.80;1.00;;;;;;5010384;28;21540;-76
2021/01/02 11:38:10;;;;;;;30.53;18.50;;;3.90;1.00;;;;;;5012368;28;20187;-75
2021/01/02 11:40:36;;;;;;;30.43;17.27;;;3.90;1.00;;;;;;5007163;28;20259;-75
2021/01/02 11:43:01;;;;;;;27.50;17.47;;;3.90;1.00;;;;;;5001833;28;20207;-76
2021/01/02 11:45:28;;;;;;;29.50;17.40;;;4.00;1.00;;;;;;5007319;28;20199;-77
2021/01/02 11:47:54;;;;;;;26.00;16.80;;;4.10;1.00;;;;;;5005292;28;20458;-77
2021/01/02 11:50:19;;;;;;;32.33;16.13;;;4.20;1.00;;;;;;5003129;28;20490;-78
2021/01/02 11:52:46;;;;;;;26.73;16.90;;;4.10;1.00;;;;;;4999993;28;20298;-77
2021/01/02 11:55:12;;;;;;;26.70;16.57;;;4.10;1.00;;;;;;5009382;28;20191;-76
2021/01/02 11:57:38;;;;;;;27.13;15.90;;;4.20;1.00;;;;;;5006973;28;20465;-77
2021/01/02 12:00:06;;;;;;;25.63;16.93;;;4.20;1.00;;;;;;5009565;28;20188;-76
2021/01/02 12:02:32;;;;;;;32.20;17.20;;;4.10;1.00;;;;;;5009684;28;20180;-76
2021/01/02 12:04:58;;;;;;;28.57;15.70;;;4.10;1.00;;;;;;5014766;28;20483;-76
2021/01/02 12:07:25;;;;;;;24.77;15.00;;;4.10;1.00;;;;;;5015611;28;20416;-76
2021/01/02 12:09:50;;;;;;;27.30;16.33;;;4.20;1.00;;;;;;5012778;28;21623;-76
2021/01/02 12:12:16;;;;;;;28.63;16.70;;;4.10;1.00;;;;;;5006280;28;20455;-76
2021/01/02 12:14:42;;;;;;;25.10;15.90;;;4.20;1.00;;;;;;5005536;28;20192;-74
2021/01/02 12:17:12;;;;;;;29.63;17.07;;;4.20;1.00;;;;;;5004562;28;20189;-74
2021/01/02 12:19:38;;;;;;;24.47;15.57;;;4.20;1.00;;;;;;5021864;28;20192;-76
2021/01/02 12:22:06;;;;;;;21.93;14.83;;;4.20;1.00;;;;;;5016939;28;20460;-76
2021/01/02 12:24:33;;;;;;;27.60;16.13;;;4.30;1.00;;;;;;5012945;28;20469;-75
2021/01/02 12:27:02;;;;;;;25.63;15.63;;;4.20;1.00;;;;;;5006611;28;20470;-75
2021/01/02 12:29:29;;;;;;;24.77;15.00;;;4.30;1.00;;;;;;5008246;28;20905;-76
2021/01/02 12:31:57;;;;;;;25.40;16.03;;;4.20;1.00;;;;;;5008181;28;20861;-76
2021/01/02 12:34:29;;;;;;;24.80;15.97;;;4.30;1.00;;;;;;5005674;28;20644;-77
2021/01/02 12:36:56;;;;;;;27.67;15.83;;;4.30;1.00;;;;;;5008341;28;20968;-76
2021/01/02 12:39:27;;;;;;;22.20;15.57;;;4.30;1.00;;;;;;5018103;28;20456;-75
2021/01/02 12:41:53;;;;;;;26.70;16.40;;;4.30;1.00;;;;;;5017162;28;20471;-75
2021/01/02 12:44:21;;;;;;;29.53;15.30;;;4.40;1.00;;;;;;5018465;28;20468;-76
2021/01/02 12:46:49;;;;;;;25.20;14.63;;;4.40;1.00;;;;;;5014016;28;20926;-76
2021/01/02 12:49:17;;;;;;;28.30;15.97;;;4.40;1.00;;;;;;5015150;28;20553;-79
2021/01/02 12:51:43;;;;;;;21.53;13.17;;;4.30;1.00;;;;;;5014040;28;20450;-77
2021/01/02 12:54:08;;;;;;;26.20;16.00;;;4.30;1.00;;;;;;5006127;28;20443;-84
2021/01/02 12:56:34;;;;;;;26.13;15.30;;;4.30;1.00;;;;;;5010132;28;20193;-81
2021/01/02 12:59:03;;;;;;;27.47;14.60;;;4.30;1.00;;;;;;5007850;28;20420;-79
2021/01/02 13:01:38;;;;;;;28.13;16.00;;;4.40;1.00;;;;;;5009787;28;20193;-78